Time;durP1;ratioP1;P1;durP2;ratioP2;P2;SDS_P1;SDS_P2;PMS_P1;PMS_P2;Temp;Humidity;BMP_temperature;BMP_pressure;BME280_temperature;BME280_humidity;BME280_pressure;Samples;Min_cycle;Max_cycle;Signal;HPM_P1;HPM_P2
2024/01/06 00:00:22;;;;;;;1.92;1.60;;;;;;;7.04;60.45;93692.75;6164237;23;20039;-85
2024/01/06 00:02:48;;;;;;;2.65;1.50;;;;;;;7.09;60.44;93692.97;6164716;23;20027;-85
2024/01/06 00:05:14;;;;;;;2.35;1.60;;;;;;;6.95;60.93;93705.06;6215963;23;20004;-85
2024/01/06 00:07:40;;;;;;;3.65;1.60;;;;;;;6.86;60.58;93698.44;6189096;23;20004;-85
2024/01/06 00:10:06;;;;;;;2.70;1.75;;;;;;;7.07;60.19;93704.50;6164071;23;20008;-85
2024/01/06 00:12:32;;;;;;;2.22;1.75;;;;;;;6.69;61.35;93699.75;6164593;23;20096;-85
2024/01/06 00:14:57;;;;;;;2.03;1.50;;;;;;;6.80;61.08;93701.81;6164307;23;20028;-84
2024/01/06 00:17:23;;;;;;;2.05;1.70;;;;;;;6.76;61.05;93700.56;6139892;23;20015;-85
2024/01/06 00:19:51;;;;;;;1.73;1.63;;;;;;;6.89;60.50;93697.25;6188470;23;20000;-85
2024/01/06 00:22:18;;;;;;;1.92;1.60;;;;;;;7.00;60.27;93710.41;6164229;23;20069;-85
2024/01/06 00:24:48;;;;;;;2.15;1.70;;;;;;;6.95;60.25;93715.41;6163490;23;20062;-85
2024/01/06 00:27:13;;;;;;;2.10;1.60;;;;;;;7.08;59.41;93713.84;6164606;23;20016;-85
2024/01/06 00:29:39;;;;;;;2.00;1.67;;;;;;;6.92;60.39;93705.44;6163790;23;20008;-85
2024/01/06 00:32:05;;;;;;;2.00;1.80;;;;;;;6.98;60.01;93714.19;6139663;23;20023;-85
2024/01/06 00:34:30;;;;;;;2.40;1.88;;;;;;;6.65;61.04;93709.66;6164083;23;20008;-85
2024/01/06 00:36:56;;;;;;;2.10;1.90;;;;;;;6.87;60.75;93725.88;6164342;23;20059;-85
2024/01/06 00:39:21;;;;;;;3.28;2.13;;;;;;;6.84;60.83;93726.28;6164430;23;20077;-85
2024/01/06 00:41:47;;;;;;;2.08;1.88;;;;;;;6.89;60.71;93725.69;6139308;23;20004;-85
2024/01/06 00:44:12;;;;;;;2.05;1.80;;;;;;;7.00;60.17;93725.94;6163662;23;20015;-85
2024/01/06 00:46:39;;;;;;;2.00;1.75;;;;;;;6.95;60.10;93728.31;6188245;23;20008;-86
2024/01/06 00:49:04;;;;;;;2.72;2.05;;;;;;;6.87;60.70;93727.66;6164040;23;20005;-85
2024/01/06 00:51:31;;;;;;;1.83;1.58;;;;;;;6.74;60.63;93711.13;6139352;23;20069;-85
2024/01/06 00:53:56;;;;;;;1.55;1.40;;;;;;;6.73;60.73;93726.81;6138947;23;20031;-85
2024/01/06 00:56:22;;;;;;;1.48;1.38;;;;;;;6.75;60.58;93730.78;6139434;23;20013;-85
2024/01/06 00:58:48;;;;;;;2.58;1.52;;;;;;;6.77;60.41;93733.19;6163470;23;20068;-86
2024/01/06 01:01:13;;;;;;;1.60;1.50;;;;;;;6.64;60.83;93739.88;6188625;23;20011;-86
2024/01/06 01:03:39;;;;;;;2.40;1.70;;;;;;;6.50;61.08;93733.03;6139760;23;20008;-85
2024/01/06 01:06:04;;;;;;;2.08;1.70;;;;;;;6.69;60.75;93746.25;6188449;23;20054;-85
2024/01/06 01:08:30;;;;;;;2.60;1.85;;;;;;;6.71;60.89;93749.44;6138716;23;20020;-85
2024/01/06 01:10:56;;;;;;;2.65;2.03;;;;;;;6.63;60.93;93751.19;6163624;23;20036;-84
2024/01/06 01:13:22;;;;;;;2.67;2.00;;;;;;;6.64;60.83;93755.38;6163646;23;20008;-85
2024/01/06 01:15:48;;;;;;;2.65;2.33;;;;;;;6.61;60.71;93758.34;6138789;23;20019;-85
2024/01/06 01:18:13;;;;;;;4.07;2.40;;;;;;;6.63;60.04;93760.72;6163454;23;20027;-85
2024/01/06 01:20:41;;;;;;;3.38;2.55;;;;;;;6.51;60.29;93765.63;6188303;23;20000;-85
2024/01/06 01:23:07;;;;;;;3.65;2.90;;;;;;;6.38;61.03;93765.53;6163647;23;20008;-84
2024/01/06 01:25:32;;;;;;;3.38;2.40;;;;;;;6.35;60.54;93763.31;6163326;23;20066;-85
2024/01/06 01:27:58;;;;;;;3.90;2.70;;;;;;;6.43;60.20;93763.97;6163328;23;20014;-85
2024/01/06 01:30:23;;;;;;;3.33;2.67;;;;;;;6.42;60.29;93772.69;6163861;23;20091;-85
2024/01/06 01:32:48;;;;;;;4.00;3.10;;;;;;;6.49;59.45;93777.91;6163573;23;20009;-85
2024/01/06 01:35:14;;;;;;;4.22;2.80;;;;;;;6.29;60.77;93788.09;6188304;23;20005;-85
2024/01/06 01:37:39;;;;;;;3.80;2.90;;;;;;;5.94;61.90;93782.81;6163664;23;20016;-85
2024/01/06 01:40:06;;;;;;;4.10;2.90;;;;;;;5.74;62.34;93782.59;6138800;23;20012;-85
2024/01/06 01:42:32;;;;;;;4.03;2.95;;;;;;;5.86;61.73;93793.22;6162530;23;20096;-85
2024/01/06 01:44:58;;;;;;;3.15;2.60;;;;;;;5.42;62.99;93792.34;6185988;23;20008;-85
2024/01/06 01:47:23;;;;;;;3.40;2.63;;;;;;;5.55;62.44;93790.94;6138429;23;20009;-85
2024/01/06 01:49:49;;;;;;;4.10;2.85;;;;;;;5.56;63.40;93798.50;6163539;23;20004;-85
2024/01/06 01:52:15;;;;;;;4.00;2.90;;;;;;;5.90;61.95;93799.63;6188438;23;20005;-85
2024/01/06 01:54:42;;;;;;;3.00;2.50;;;;;;;5.99;61.60;93797.75;6187620;23;19997;-85
2024/01/06 01:57:10;;;;;;;3.50;2.80;;;;;;;6.11;61.51;93791.13;6188117;23;20016;-85
2024/01/06 01:59:36;;;;;;;3.90;2.78;;;;;;;6.08;61.27;93786.31;6163429;23;20040;-85
2024/01/06 02:02:02;;;;;;;3.35;2.65;;;;;;;6.07;61.28;93775.22;6163498;23;20016;-84
2024/01/06 02:04:28;;;;;;;4.50;2.97;;;;;;;6.04;61.18;93769.63;6188205;23;20005;-85
2024/01/06 02:06:53;;;;;;;4.50;3.03;;;;;;;6.17;61.12;93792.97;6188488;23;20008;-85
2024/01/06 02:09:19;;;;;;;3.72;3.05;;;;;;;5.85;61.69;93776.16;6163070;23;20038;-85
2024/01/06 02:11:51;;;;;;;4.47;3.22;;;;;;;5.97;61.66;93786.81;6138596;23;20017;-85
2024/01/06 02:14:16;;;;;;;4.28;2.90;;;;;;;5.98;61.55;93784.06;6162824;23;20015;-85
2024/01/06 02:16:43;;;;;;;3.88;2.90;;;;;;;5.98;62.05;93791.00;6138631;23;20276;-85
2024/01/06 02:19:12;;;;;;;4.05;2.85;;;;;;;6.03;61.44;93793.81;6138870;23;20011;-85
2024/01/06 02:21:42;;;;;;;4.38;3.20;;;;;;;6.01;61.37;93785.47;6188208;23;20008;-85
2024/01/06 02:24:07;;;;;;;3.72;2.80;;;;;;;6.03;61.52;93786.06;6187595;23;20020;-85
2024/01/06 02:26:33;;;;;;;5.68;3.03;;;;;;;6.09;61.64;93798.22;6188044;23;20047;-85
2024/01/06 02:28:58;;;;;;;3.53;2.90;;;;;;;6.14;61.38;93801.06;6138458;23;20008;-85
2024/01/06 02:31:27;;;;;;;4.20;2.92;;;;;;;6.16;61.23;93791.34;6163148;23;20001;-84
2024/01/06 02:33:52;;;;;;;2.75;2.25;;;;;;;6.09;61.13;93793.06;6162771;23;20059;-85
2024/01/06 02:36:18;;;;;;;3.20;2.60;;;;;;;6.09;61.59;93803.41;6163167;23;20009;-85
2024/01/06 02:38:43;;;;;;;3.78;2.70;;;;;;;6.09;61.98;93811.13;6138727;23;20036;-85
2024/01/06 02:41:09;;;;;;;2.78;2.42;;;;;;;6.11;61.23;93803.22;6163176;23;20012;-85
2024/01/06 02:43:36;;;;;;;2.55;1.95;;;;;;;6.14;61.23;93816.56;6162562;23;20018;-85
2024/01/06 02:46:01;;;;;;;2.40;1.92;;;;;;;6.15;61.77;93813.00;6138021;23;20082;-85
2024/01/06 02:48:29;;;;;;;1.60;1.35;;;;;;;6.23;61.47;93820.63;6163289;23;20004;-85
2024/01/06 02:50:55;;;;;;;1.30;1.10;;;;;;;6.23;61.02;93820.63;6163642;23;20082;-86
2024/01/06 02:53:20;;;;;;;1.00;0.90;;;;;;;5.86;61.39;93814.69;6163217;23;20016;-86
2024/01/06 02:55:46;;;;;;;0.75;0.70;;;;;;;5.96;61.64;93818.75;6163003;23;20016;-85
2024/01/06 02:58:11;;;;;;;0.82;0.75;;;;;;;5.72;62.28;93815.50;6163433;23;20047;-85
2024/01/06 03:00:38;;;;;;;0.95;0.70;;;;;;;5.71;62.45;93821.63;6162808;23;20032;-85
2024/01/06 03:03:04;;;;;;;0.77;0.60;;;;;;;5.55;63.09;93820.09;6187465;23;20016;-85
2024/01/06 03:05:32;;;;;;;0.75;0.55;;;;;;;5.82;61.83;93810.06;6162015;23;20017;-85
2024/01/06 03:07:59;;;;;;;0.52;0.50;;;;;;;5.77;61.84;93812.38;6138523;23;20028;-85
2024/01/06 03:10:24;;;;;;;0.85;0.80;;;;;;;5.45;62.87;93807.47;6138310;23;20022;-85
2024/01/06 03:12:49;;;;;;;0.65;0.60;;;;;;;5.72;62.09;93815.50;6137782;23;20040;-85
2024/01/06 03:15:15;;;;;;;0.80;0.70;;;;;;;5.58;62.82;93816.34;6137947;23;20165;-85
2024/01/06 03:17:40;;;;;;;1.02;0.70;;;;;;;5.37;63.24;93820.47;6137314;23;20017;-85
2024/01/06 03:20:07;;;;;;;1.00;0.90;;;;;;;5.57;62.47;93825.84;6163138;23;20000;-85
2024/01/06 03:22:33;;;;;;;0.90;0.70;;;;;;;5.46;63.05;93821.97;6163155;23;20134;-86
2024/01/06 03:24:58;;;;;;;1.30;0.88;;;;;;;5.49;62.37;93813.88;6162856;23;20016;-85
2024/01/06 03:27:24;;;;;;;1.88;1.20;;;;;;;5.53;62.23;93826.41;6162568;23;20012;-86
2024/01/06 03:29:49;;;;;;;1.20;1.10;;;;;;;5.58;62.10;93824.06;6162808;23;20017;-85
2024/01/06 03:32:15;;;;;;;1.75;1.20;;;;;;;5.46;62.09;93823.75;6162344;23;20011;-86
2024/01/06 03:34:44;;;;;;;1.30;1.08;;;;;;;5.64;61.64;93824.16;6160758;23;20019;-86
2024/01/06 03:37:10;;;;;;;1.52;1.20;;;;;;;5.61;62.15;93831.47;6162938;23;20063;-86
2024/01/06 03:39:35;;;;;;;1.50;1.20;;;;;;;5.69;61.86;93833.94;6163039;23;20012;-85
2024/01/06 03:42:03;;;;;;;1.33;1.10;;;;;;;5.63;62.13;93835.44;6138093;23;20032;-86
2024/01/06 03:44:30;;;;;;;1.50;1.15;;;;;;;5.66;61.50;93829.16;6138470;23;20013;-85
2024/01/06 03:46:57;;;;;;;1.73;1.30;;;;;;;5.81;61.15;93835.06;6187308;23;20013;-85
2024/01/06 03:49:23;;;;;;;1.67;1.40;;;;;;;5.64;61.43;93825.94;6138334;23;20016;-85
2024/01/06 03:51:49;;;;;;;2.00;1.25;;;;;;;5.37;62.51;93835.94;6162911;23;20023;-86
2024/01/06 03:54:16;;;;;;;1.50;1.20;;;;;;;5.13;63.20;93821.56;6162457;23;20020;-85
2024/01/06 03:56:41;;;;;;;2.20;1.60;;;;;;;5.42;62.24;93831.03;6137880;23;20012;-85
2024/01/06 03:59:12;;;;;;;1.70;1.40;;;;;;;5.13;63.28;93836.22;6163353;23;20023;-85
2024/01/06 04:01:37;;;;;;;1.60;1.50;;;;;;;5.31;63.15;93838.44;6164690;23;20016;-85
2024/01/06 04:04:03;;;;;;;1.90;1.33;;;;;;;5.33;62.66;93845.03;6164739;23;20068;-85
2024/01/06 04:06:31;;;;;;;2.03;1.50;;;;;;;5.48;62.47;93850.97;6139847;23;20051;-85
2024/01/06 04:08:57;;;;;;;1.60;1.40;;;;;;;5.60;61.80;93840.19;6188348;23;20080;-85
2024/01/06 04:11:23;;;;;;;1.77;1.40;;;;;;;5.53;62.27;93854.78;6189150;23;20096;-85
2024/01/06 04:13:48;;;;;;;1.80;1.50;;;;;;;5.44;61.70;93847.13;6164182;23;20008;-86
2024/01/06 04:16:14;;;;;;;2.13;1.40;;;;;;;5.33;62.52;93852.75;6164267;23;20040;-85
2024/01/06 04:18:39;;;;;;;1.33;1.23;;;;;;;5.28;62.39;93842.19;6164445;23;20008;-86
2024/01/06 04:21:05;;;;;;;1.77;1.38;;;;;;;5.40;62.42;93853.63;6139576;23;20051;-85
2024/01/06 04:23:31;;;;;;;1.60;1.30;;;;;;;5.66;61.70;93862.69;6163934;23;20000;-85
2024/01/06 04:25:56;;;;;;;1.40;1.30;;;;;;;5.51;62.51;93869.63;6164247;23;20019;-85
2024/01/06 04:28:22;;;;;;;1.90;1.48;;;;;;;5.34;63.15;93854.34;6164096;23;20024;-85
2024/01/06 04:30:47;;;;;;;1.77;1.50;;;;;;;5.29;63.20;93854.06;6164394;23;20005;-86
2024/01/06 04:33:13;;;;;;;2.38;1.75;;;;;;;5.36;63.16;93857.53;6163881;23;20014;-85
2024/01/06 04:35:38;;;;;;;2.40;1.63;;;;;;;5.44;62.32;93856.66;6188272;23;20009;-86
2024/01/06 04:38:04;;;;;;;1.85;1.60;;;;;;;5.41;63.06;93865.56;6139385;23;20019;-85
2024/01/06 04:40:30;;;;;;;2.13;1.60;;;;;;;5.35;63.16;93858.53;6189396;23;20012;-85
2024/01/06 04:42:55;;;;;;;2.70;1.98;;;;;;;5.33;63.65;93870.81;6164047;23;20012;-86
2024/01/06 04:45:23;;;;;;;2.50;2.00;;;;;;;5.43;63.33;93861.00;6139391;23;20020;-85
2024/01/06 04:47:49;;;;;;;2.53;1.90;;;;;;;5.49;63.10;93860.28;6164879;23;20005;-86
2024/01/06 04:50:14;;;;;;;2.83;1.80;;;;;;;5.66;62.25;93875.56;6164428;23;20004;-86
2024/01/06 04:52:40;;;;;;;2.42;1.92;;;;;;;5.68;62.56;93866.66;6138524;23;20012;-86
2024/01/06 04:55:05;;;;;;;2.58;1.98;;;;;;;5.70;61.91;93865.69;6139397;23;20012;-85
2024/01/06 04:57:31;;;;;;;3.35;2.00;;;;;;;5.59;62.52;93887.59;6139742;23;20011;-86
2024/01/06 04:59:57;;;;;;;3.60;2.40;;;;;;;5.64;62.16;93862.84;6139548;23;20007;-85
2024/01/06 05:02:23;;;;;;;2.45;2.00;;;;;;;5.86;61.49;93881.78;6164154;23;20008;-85
2024/01/06 05:04:48;;;;;;;2.53;1.90;;;;;;;5.85;61.69;93877.59;6163725;23;20056;-85
2024/01/06 05:07:14;;;;;;;2.25;1.63;;;;;;;5.77;61.97;93882.84;6139032;23;20009;-85
2024/01/06 05:09:39;;;;;;;2.35;1.80;;;;;;;5.70;61.94;93876.81;6163235;23;20069;-86
2024/01/06 05:12:05;;;;;;;1.95;1.60;;;;;;;5.62;61.89;93879.50;6163583;23;20069;-86
2024/01/06 05:14:30;;;;;;;1.92;1.65;;;;;;;5.67;62.00;93872.00;6139325;23;20008;-86
2024/01/06 05:16:56;;;;;;;1.67;1.45;;;;;;;5.66;61.83;93876.38;6163496;23;20020;-85
2024/01/06 05:19:21;;;;;;;2.17;1.83;;;;;;;5.77;61.77;93894.94;6163640;23;20012;-85
2024/01/06 05:21:48;;;;;;;1.95;1.77;;;;;;;5.72;61.63;93877.44;6162466;23;20008;-86
2024/01/06 05:24:13;;;;;;;2.20;1.80;;;;;;;5.82;61.63;93875.34;6186861;23;20015;-85
2024/01/06 05:26:39;;;;;;;2.42;2.22;;;;;;;5.68;62.00;93883.94;6161961;23;20016;-85
2024/01/06 05:29:04;;;;;;;1.92;1.75;;;;;;;5.56;62.06;93883.59;6137789;23;20016;-85
2024/01/06 05:31:30;;;;;;;2.13;1.90;;;;;;;5.76;61.78;93901.88;6163660;23;20001;-86
2024/01/06 05:33:55;;;;;;;2.20;1.60;;;;;;;5.73;62.04;93894.53;6138412;23;20039;-86
2024/01/06 05:36:21;;;;;;;2.25;2.00;;;;;;;5.63;61.81;93904.31;6163373;23;20020;-86
2024/01/06 05:38:46;;;;;;;2.05;1.85;;;;;;;5.68;61.74;93904.56;6163211;23;20016;-85
2024/01/06 05:41:12;;;;;;;2.53;2.20;;;;;;;5.68;61.58;93902.78;6139180;23;20217;-85
2024/01/06 05:43:38;;;;;;;2.60;2.22;;;;;;;5.62;61.99;93906.09;6163117;23;20060;-85
2024/01/06 05:46:03;;;;;;;2.75;2.20;;;;;;;5.61;61.64;93911.41;6138695;23;20016;-85
2024/01/06 05:48:29;;;;;;;3.78;2.65;;;;;;;5.81;60.95;93912.47;6139343;23;20015;-85
2024/01/06 05:50:54;;;;;;;3.97;2.80;;;;;;;5.61;61.72;93932.06;6163354;23;20008;-85
2024/01/06 05:53:21;;;;;;;3.53;2.78;;;;;;;5.37;62.22;93930.53;6163484;23;20020;-86
2024/01/06 05:55:47;;;;;;;3.05;2.58;;;;;;;4.85;63.69;93930.34;6163506;23;20024;-86
2024/01/06 05:58:12;;;;;;;3.75;2.80;;;;;;;5.01;63.54;93929.44;6188164;23;20019;-86
2024/01/06 06:00:38;;;;;;;3.30;2.97;;;;;;;5.00;63.96;93938.13;6188187;23;20012;-86
2024/01/06 06:03:04;;;;;;;3.38;2.90;;;;;;;5.02;63.48;93936.19;6138768;23;20017;-85
2024/01/06 06:05:29;;;;;;;4.13;2.70;;;;;;;5.13;63.30;93937.53;6163189;23;20031;-85
2024/01/06 06:07:55;;;;;;;3.28;2.97;;;;;;;4.94;63.86;93933.69;6162919;23;20038;-85
2024/01/06 06:10:21;;;;;;;3.50;3.13;;;;;;;5.06;63.24;93932.28;6162993;23;20008;-85
2024/01/06 06:12:47;;;;;;;3.35;2.85;;;;;;;5.09;63.29;93929.34;6163496;23;20011;-86
2024/01/06 06:15:12;;;;;;;3.50;3.20;;;;;;;5.27;62.99;93923.88;6163055;23;20028;-85
2024/01/06 06:17:39;;;;;;;4.30;3.30;;;;;;;5.26;62.81;93924.84;6163504;23;20012;-85
2024/01/06 06:20:09;;;;;;;4.15;3.13;;;;;;;5.19;62.67;93931.66;6187173;23;20050;-85
2024/01/06 06:22:34;;;;;;;3.92;3.15;;;;;;;5.17;63.42;93932.84;6162966;23;20009;-85
2024/01/06 06:25:04;;;;;;;4.20;3.25;;;;;;;5.08;62.57;93927.75;6187560;23;20130;-86
2024/01/06 06:27:29;;;;;;;5.03;3.40;;;;;;;5.42;61.75;93929.03;6162777;23;20025;-85
2024/01/06 06:29:57;;;;;;;4.55;3.20;;;;;;;5.03;62.59;93921.53;6138801;23;20009;-85
2024/01/06 06:32:22;;;;;;;4.80;3.15;;;;;;;5.19;62.33;93933.47;6138076;23;20012;-85
2024/01/06 06:34:48;;;;;;;4.75;3.53;;;;;;;5.18;62.19;93924.09;6163071;23;20008;-85
2024/01/06 06:37:13;;;;;;;4.13;2.90;;;;;;;5.54;61.09;93937.13;6138793;23;20137;-86
2024/01/06 06:39:39;;;;;;;4.10;3.03;;;;;;;5.44;61.57;93949.47;6188001;23;20117;-86
2024/01/06 06:42:04;;;;;;;3.58;2.67;;;;;;;5.54;61.08;93933.75;6138611;23;20017;-86
2024/01/06 06:44:30;;;;;;;3.42;2.83;;;;;;;5.60;60.62;93948.53;6187716;23;20005;-85
2024/01/06 06:46:56;;;;;;;5.53;3.88;;;;;;;5.27;62.21;93948.84;6214259;23;19996;-85
2024/01/06 06:49:22;;;;;;;5.45;3.95;;;;;;;5.16;62.62;93946.69;6162955;23;20009;-85
2024/01/06 06:51:48;;;;;;;4.32;3.40;;;;;;;4.96;62.72;93952.34;6162808;23;20012;-85
2024/01/06 06:54:15;;;;;;;3.58;2.60;;;;;;;4.44;64.59;93945.34;6187328;23;20009;-86
2024/01/06 06:56:43;;;;;;;3.65;2.53;;;;;;;4.63;64.42;93952.59;6163753;23;20088;-86
2024/01/06 06:59:09;;;;;;;3.60;2.63;;;;;;;4.76;64.52;93941.72;6138175;23;20087;-85
2024/01/06 07:01:35;;;;;;;3.13;2.20;;;;;;;4.89;63.94;93946.28;6187958;23;20089;-85
2024/01/06 07:04:01;;;;;;;2.70;2.22;;;;;;;5.07;62.64;93943.41;6186717;23;20004;-86
2024/01/06 07:06:27;;;;;;;3.63;2.65;;;;;;;5.26;62.83;93953.19;6138377;23;20012;-85
2024/01/06 07:08:54;;;;;;;5.38;2.58;;;;;;;5.32;62.90;93961.22;6162056;23;20029;-85
2024/01/06 07:11:19;;;;;;;4.15;2.80;;;;;;;5.34;63.25;93962.63;6187578;23;20084;-85
2024/01/06 07:13:45;;;;;;;4.68;3.40;;;;;;;5.33;63.08;93955.06;6186876;23;20015;-86
2024/01/06 07:16:11;;;;;;;4.10;3.08;;;;;;;5.46;62.82;93968.97;6161220;23;20020;-85
2024/01/06 07:18:37;;;;;;;5.80;3.88;;;;;;;5.46;62.30;93966.41;6162938;23;20105;-85
2024/01/06 07:21:06;;;;;;;5.70;4.03;;;;;;;5.57;62.04;93977.25;6162779;23;20005;-85
2024/01/06 07:23:32;;;;;;;4.57;3.38;;;;;;;5.62;62.13;93977.53;6163222;23;20013;-86
2024/01/06 07:25:58;;;;;;;3.15;2.30;;;;;;;5.62;62.31;93969.78;6137541;23;20004;-86
2024/01/06 07:28:23;;;;;;;5.40;3.65;;;;;;;5.65;62.23;93984.88;6187549;23;20008;-85
2024/01/06 07:30:49;;;;;;;6.28;3.42;;;;;;;5.37;63.25;93970.03;6137701;23;20001;-85
2024/01/06 07:33:16;;;;;;;4.43;3.35;;;;;;;5.56;62.68;93980.78;6164270;23;20032;-86
2024/01/06 07:35:43;;;;;;;2.83;2.00;;;;;;;5.63;62.20;93979.09;6140313;23;20004;-86
2024/01/06 07:38:10;;;;;;;2.45;2.00;;;;;;;5.67;61.75;93985.50;6190088;23;20009;-86
2024/01/06 07:40:36;;;;;;;3.35;2.20;;;;;;;5.77;61.58;93987.81;6188747;23;20000;-85
2024/01/06 07:43:01;;;;;;;2.78;2.33;;;;;;;5.84;61.18;93993.88;6164830;23;20055;-86
2024/01/06 07:45:27;;;;;;;2.53;2.28;;;;;;;5.81;61.33;94002.78;6164153;23;20008;-86
2024/01/06 07:47:55;;;;;;;3.53;2.33;;;;;;;5.78;61.41;93995.38;6189414;23;20013;-85
2024/01/06 07:50:20;;;;;;;13.27;7.32;;;;;;;5.60;62.38;93994.97;6140603;23;20012;-86
2024/01/06 07:52:46;;;;;;;26.08;12.77;;;;;;;5.73;62.66;94009.78;6140465;23;20009;-86
2024/01/06 07:55:11;;;;;;;29.13;16.50;;;;;;;5.72;62.55;94003.84;6139398;23;20013;-85
2024/01/06 07:57:37;;;;;;;26.50;15.02;;;;;;;5.63;62.15;94002.31;6165101;23;20115;-86
2024/01/06 08:00:03;;;;;;;17.83;10.07;;;;;;;5.70;62.66;93994.69;6139653;23;20001;-86
2024/01/06 08:02:28;;;;;;;22.90;13.82;;;;;;;5.65;62.53;93998.59;6189266;23;20008;-86
2024/01/06 08:04:55;;;;;;;13.85;9.38;;;;;;;5.64;63.00;94004.72;6164855;23;20012;-86
2024/01/06 08:07:21;;;;;;;6.72;3.88;;;;;;;5.94;61.88;94012.50;6164615;23;20082;-86
2024/01/06 08:09:47;;;;;;;4.03;2.60;;;;;;;5.25;62.91;93992.03;6163780;23;20027;-86
2024/01/06 08:12:12;;;;;;;4.30;2.85;;;;;;;5.37;63.64;94003.53;6139488;23;20025;-85
2024/01/06 08:14:37;;;;;;;3.55;2.22;;;;;;;5.15;64.47;94006.97;6164722;23;20018;-86
2024/01/06 08:17:04;;;;;;;3.20;2.25;;;;;;;5.27;63.64;93997.81;6140275;23;20019;-85
2024/01/06 08:19:32;;;;;;;3.80;2.95;;;;;;;5.49;63.24;93999.56;6164245;23;20012;-85
2024/01/06 08:21:57;;;;;;;5.65;3.65;;;;;;;5.25;64.53;94003.19;6188892;23;20007;-86
2024/01/06 08:24:23;;;;;;;4.57;3.20;;;;;;;5.39;64.16;94011.91;6163648;23;20016;-86
2024/01/06 08:26:48;;;;;;;5.93;3.70;;;;;;;5.48;63.60;94012.63;6139483;23;20113;-85
2024/01/06 08:29:16;;;;;;;6.15;4.15;;;;;;;5.37;63.71;94011.28;6139694;23;20008;-85
2024/01/06 08:31:41;;;;;;;6.05;3.72;;;;;;;5.16;64.39;94016.28;6140518;23;20004;-86
2024/01/06 08:34:07;;;;;;;4.40;3.53;;;;;;;5.20;64.67;94007.25;6164320;23;20012;-85
2024/01/06 08:36:34;;;;;;;4.72;3.50;;;;;;;5.55;63.83;94013.53;6189189;23;20004;-86
2024/01/06 08:39:01;;;;;;;4.57;3.45;;;;;;;5.66;63.58;94023.41;6189156;23;20008;-86
2024/01/06 08:41:27;;;;;;;10.02;8.85;;;;;;;5.87;62.72;94024.50;6140357;23;20005;-85
2024/01/06 08:43:52;;;;;;;8.82;7.00;;;;;;;5.90;62.79;94020.75;6187422;23;20018;-85
2024/01/06 08:46:18;;;;;;;7.43;5.00;;;;;;;5.77;62.82;94011.03;6163663;23;20005;-85
2024/01/06 08:48:43;;;;;;;7.55;5.47;;;;;;;5.89;62.81;94014.78;6164010;23;20004;-85
2024/01/06 08:51:10;;;;;;;8.23;5.72;;;;;;;5.98;62.76;94013.75;6163422;23;20058;-85
2024/01/06 08:53:35;;;;;;;6.45;4.43;;;;;;;6.13;62.14;94023.25;6163007;23;20070;-85
2024/01/06 08:56:01;;;;;;;6.28;4.57;;;;;;;5.99;62.47;94025.66;6162923;23;20068;-84
2024/01/06 08:58:27;;;;;;;7.75;5.38;;;;;;;6.07;63.20;94035.91;6138985;23;20036;-85
2024/01/06 09:00:53;;;;;;;8.43;5.43;;;;;;;6.19;62.46;94032.88;6164370;23;20012;-85
2024/01/06 09:03:24;;;;;;;6.00;4.22;;;;;;;6.40;61.91;94038.09;6187801;23;20037;-85
2024/01/06 09:05:51;;;;;;;5.22;3.72;;;;;;;6.36;61.94;94030.88;6162579;23;20012;-85
2024/01/06 09:08:17;;;;;;;6.55;4.22;;;;;;;6.35;62.68;94035.25;6137261;23;20024;-85
2024/01/06 09:10:43;;;;;;;4.63;3.30;;;;;;;6.41;62.03;94034.53;6138186;23;20074;-85
2024/01/06 09:13:08;;;;;;;4.75;3.30;;;;;;;6.39;62.54;94046.03;6138347;23;20051;-85
2024/01/06 09:15:34;;;;;;;4.57;3.60;;;;;;;6.22;62.85;94035.09;6138929;23;20043;-85
2024/01/06 09:18:00;;;;;;;4.57;3.67;;;;;;;6.38;62.20;94039.28;6163690;23;20060;-85
2024/01/06 09:20:27;;;;;;;6.10;5.05;;;;;;;6.26;62.19;94047.47;6188823;23;20001;-85
2024/01/06 09:22:52;;;;;;;10.25;7.55;;;;;;;6.24;62.01;94041.69;6163670;23;20008;-85
2024/01/06 09:25:18;;;;;;;7.43;5.90;;;;;;;6.26;62.43;94057.00;6188181;23;20016;-85
2024/01/06 09:27:43;;;;;;;6.70;5.57;;;;;;;6.22;62.60;94055.75;6163668;23;20016;-85
2024/01/06 09:30:09;;;;;;;5.60;4.82;;;;;;;6.29;62.10;94050.69;6163379;23;20012;-85
2024/01/06 09:32:34;;;;;;;5.32;3.88;;;;;;;6.35;61.50;94048.16;6138805;23;20039;-85
2024/01/06 09:35:01;;;;;;;4.53;3.50;;;;;;;6.52;61.28;94053.94;6163282;23;20000;-86
2024/01/06 09:37:29;;;;;;;5.60;3.50;;;;;;;6.45;61.11;94045.31;6163170;23;20020;-85
2024/01/06 09:39:55;;;;;;;5.13;3.22;;;;;;;6.04;62.79;94061.28;6140157;23;20009;-85
2024/01/06 09:42:20;;;;;;;4.72;3.72;;;;;;;5.62;63.87;94057.47;6138735;23;20085;-86
2024/01/06 09:44:46;;;;;;;5.60;3.67;;;;;;;5.08;66.31;94053.22;6163434;23;20011;-85
2024/01/06 09:47:12;;;;;;;5.80;4.07;;;;;;;5.47;64.87;94053.09;6188744;23;20024;-85
2024/01/06 09:49:39;;;;;;;7.60;4.80;;;;;;;5.37;64.50;94049.97;6163105;23;20021;-85
2024/01/06 09:52:12;;;;;;;7.72;4.65;;;;;;;5.91;62.86;94064.44;6163512;23;20008;-86
2024/01/06 09:54:41;;;;;;;8.05;4.85;;;;;;;6.10;62.50;94063.16;6188120;23;20064;-85
2024/01/06 09:57:07;;;;;;;7.75;5.15;;;;;;;6.17;62.20;94055.47;6188154;23;20064;-85
2024/01/06 09:59:34;;;;;;;6.95;4.72;;;;;;;6.32;61.80;94051.13;6138650;23;20017;-85
2024/01/06 10:02:01;;;;;;;5.47;4.07;;;;;;;5.76;63.54;94056.69;6187642;23;20009;-85
2024/01/06 10:04:26;;;;;;;5.20;4.30;;;;;;;6.15;62.78;94054.84;6187993;23;20100;-86
2024/01/06 10:06:51;;;;;;;5.35;4.00;;;;;;;6.27;62.44;94048.28;6163248;23;20042;-85
2024/01/06 10:09:17;;;;;;;6.13;4.80;;;;;;;6.33;62.14;94039.81;6137483;23;20024;-86
2024/01/06 10:11:46;;;;;;;7.20;5.20;;;;;;;6.43;62.66;94040.31;6163303;23;20068;-86
2024/01/06 10:14:11;;;;;;;7.88;5.43;;;;;;;6.54;62.09;94051.97;6187123;23;20123;-86
2024/01/06 10:16:39;;;;;;;7.38;5.65;;;;;;;6.75;60.68;94055.59;6187545;23;20090;-86
2024/01/06 10:19:04;;;;;;;8.48;5.57;;;;;;;6.73;61.22;94057.56;6187340;23;20019;-85
2024/01/06 10:21:32;;;;;;;8.10;5.93;;;;;;;6.61;61.74;94059.81;6187692;23;20000;-85
2024/01/06 10:23:57;;;;;;;6.85;5.00;;;;;;;6.59;61.15;94057.41;6187346;23;20031;-85
2024/01/06 10:26:23;;;;;;;8.30;5.53;;;;;;;6.47;61.75;94058.84;6162643;23;20032;-85
2024/01/06 10:28:51;;;;;;;8.70;6.10;;;;;;;6.30;61.84;94050.47;6137771;23;20012;-85
2024/01/06 10:31:17;;;;;;;9.60;6.03;;;;;;;6.35;62.13;94055.91;6161950;23;20019;-84
2024/01/06 10:33:43;;;;;;;10.65;6.18;;;;;;;6.43;62.03;94047.25;6162214;23;20066;-86
2024/01/06 10:36:11;;;;;;;10.50;6.68;;;;;;;6.51;61.19;94039.44;6187578;23;20013;-85
2024/01/06 10:38:36;;;;;;;10.85;6.40;;;;;;;6.38;62.19;94034.13;6187650;23;20012;-86
2024/01/06 10:41:09;;;;;;;10.32;6.97;;;;;;;6.58;61.68;94048.03;6137759;23;20042;-85
2024/01/06 10:43:38;;;;;;;10.38;6.88;;;;;;;6.50;61.82;94032.66;6186855;23;20056;-85
2024/01/06 10:46:05;;;;;;;12.30;7.88;;;;;;;6.37;62.59;94042.84;6162195;23;20017;-86
2024/01/06 10:48:33;;;;;;;12.00;7.65;;;;;;;6.65;62.34;94035.22;6187075;23;20083;-85
2024/01/06 10:51:05;;;;;;;9.65;6.40;;;;;;;6.70;61.62;94021.72;6186776;23;20015;-86
2024/01/06 10:53:31;;;;;;;14.95;8.77;;;;;;;6.45;62.20;94030.63;6162754;23;20005;-85
2024/01/06 10:55:58;;;;;;;11.88;8.15;;;;;;;6.60;62.26;94038.31;6137379;23;20016;-86
2024/01/06 10:58:23;;;;;;;13.20;8.32;;;;;;;6.87;61.75;94025.69;6185436;23;20071;-85
2024/01/06 11:00:49;;;;;;;14.00;9.13;;;;;;;6.85;61.80;94031.06;6136045;23;20005;-85
2024/01/06 11:03:15;;;;;;;11.57;7.28;;;;;;;7.06;61.52;94039.78;6184216;23;20043;-86
2024/01/06 11:05:43;;;;;;;10.32;6.97;;;;;;;6.96;62.21;94034.13;6185124;23;20091;-85
2024/01/06 11:08:09;;;;;;;11.25;7.40;;;;;;;7.40;60.78;94039.09;6187211;23;20020;-85
2024/01/06 11:10:36;;;;;;;9.95;6.82;;;;;;;7.18;61.46;94034.94;6165110;23;20015;-86
2024/01/06 11:13:12;;;;;;;8.70;6.50;;;;;;;7.17;61.03;94033.31;6189965;23;20029;-86
2024/01/06 11:15:44;;;;;;;10.82;6.35;;;;;;;7.29;61.27;94037.03;6189723;23;20115;-85
2024/01/06 11:18:40;;;;;;;8.30;5.60;;;;;;;7.32;61.19;94041.81;6189964;23;20005;-85
2024/01/06 11:21:24;;;;;;;8.90;6.00;;;;;;;7.11;61.54;94034.88;6190630;23;20031;-86
2024/01/06 11:24:09;;;;;;;8.27;4.85;;;;;;;7.31;61.15;94039.41;6191400;23;20012;-85
2024/01/06 11:26:38;;;;;;;6.25;5.00;;;;;;;7.29;60.92;94042.19;6190451;23;20001;-85
2024/01/06 11:29:07;;;;;;;6.80;5.18;;;;;;;7.46;60.64;94016.84;6190373;23;20004;-85
2024/01/06 11:31:32;;;;;;;6.25;4.95;;;;;;;7.60;60.30;94030.69;6190244;23;20005;-85
2024/01/06 11:34:18;;;;;;;6.18;4.82;;;;;;;7.23;61.09;94030.00;6189824;23;20005;-85
2024/01/06 11:36:46;;;;;;;6.88;4.90;;;;;;;7.38;60.94;94001.47;6189274;23;20005;-85